Time;durP1;ratioP1;P1;durP2;ratioP2;P2;SDS_P1;SDS_P2;PMS_P1;PMS_P2;Temp;Humidity;BMP_temperature;BMP_pressure;BME280_temperature;BME280_humidity;BME280_pressure;Samples;Min_cycle;Max_cycle;Signal;HPM_P1;HPM_P2
2021/04/29 00:01:16;;;;;;;13.38;12.28;;;;;;;5.12;74.06;97884.59;1797903;79;21331;-64
2021/04/29 00:03:44;;;;;;;14.18;12.88;;;;;;;5.10;74.13;97890.48;1797791;79;20952;-64
2021/04/29 00:06:11;;;;;;;14.18;12.88;;;;;;;5.06;74.26;97886.66;1797852;79;21414;-64
2021/04/29 00:08:40;;;;;;;14.75;13.38;;;;;;;5.03;74.49;97885.48;1797814;79;20972;-64
2021/04/29 00:11:08;;;;;;;14.68;13.38;;;;;;;5.02;74.54;97893.08;1797829;79;20874;-64
2021/04/29 00:13:38;;;;;;;16.10;14.43;;;;;;;4.99;74.58;97889.25;1797753;79;20912;-64
2021/04/29 00:16:05;;;;;;;16.17;14.58;;;;;;;4.99;74.54;97888.41;1797884;79;20894;-64
2021/04/29 00:18:34;;;;;;;15.15;13.50;;;;;;;4.97;74.82;97889.81;1797833;79;21380;-64
2021/04/29 00:21:03;;;;;;;16.17;14.63;;;;;;;4.97;74.71;97892.48;1797758;79;20976;-64
2021/04/29 00:23:31;;;;;;;17.77;16.07;;;;;;;4.94;74.83;97882.00;1797782;79;20988;-64
2021/04/29 00:25:58;;;;;;;18.40;14.20;;;;;;;4.92;75.06;97888.34;1797841;79;20920;-64
2021/04/29 00:28:26;;;;;;;16.37;14.83;;;;;;;4.88;75.03;97884.99;1797812;79;20865;-65
2021/04/29 00:30:54;;;;;;;16.42;14.93;;;;;;;4.83;75.46;97882.58;1797823;79;21416;-65
2021/04/29 00:33:22;;;;;;;15.88;14.47;;;;;;;4.83;75.35;97889.72;1797635;79;20968;-64
2021/04/29 00:35:50;;;;;;;16.12;14.73;;;;;;;4.81;75.37;97883.59;1797825;77;21008;-63
2021/04/29 00:38:17;;;;;;;17.70;16.10;;;;;;;4.78;75.53;97888.63;1797793;79;20936;-64
2021/04/29 00:40:45;;;;;;;18.30;16.45;;;;;;;4.75;75.53;97887.95;1797847;79;20921;-64
2021/04/29 00:43:14;;;;;;;16.70;15.10;;;;;;;4.74;75.73;97892.87;1797804;79;21367;-64
2021/04/29 00:45:41;;;;;;;16.37;14.80;;;;;;;4.72;75.79;97898.27;1797780;79;20980;-64
2021/04/29 00:48:09;;;;;;;16.80;15.05;;;;;;;4.70;75.94;97894.36;1797756;79;21039;-64
2021/04/29 00:50:39;;;;;;;18.32;16.45;;;;;;;4.70;75.91;97903.67;1797756;79;21024;-65
2021/04/29 00:53:06;;;;;;;16.02;14.63;;;;;;;4.68;75.95;97899.36;1797752;79;20913;-64
2021/04/29 00:55:34;;;;;;;16.37;14.75;;;;;;;4.67;76.02;97895.86;1797828;79;21372;-63
2021/04/29 00:58:02;;;;;;;16.80;15.00;;;;;;;4.67;76.13;97895.86;1797755;79;20974;-64
2021/04/29 01:00:30;;;;;;;17.40;15.53;;;;;;;4.65;76.28;97900.41;1797756;79;21005;-64
2021/04/29 01:03:18;;;;;;;17.50;15.90;;;;;;;4.63;76.31;97900.09;1797701;79;20926;-64
2021/04/29 01:06:31;;;;;;;17.32;15.53;;;;;;;4.65;76.43;97900.86;1885855;75;23322;-64
2021/04/29 01:09:08;;;;;;;14.90;13.43;;;;;;;4.56;76.72;97895.57;1832234;76;20903;-63
2021/04/29 01:11:41;;;;;;;16.37;14.35;;;;;;;4.57;76.60;97898.59;1843835;77;20983;-64
2021/04/29 01:14:10;;;;;;;18.82;16.10;;;;;;;4.55;76.50;97893.84;1795585;78;21389;-64
2021/04/29 01:16:40;;;;;;;18.67;16.82;;;;;;;4.54;76.79;97894.80;1795273;78;21097;-65
2021/04/29 01:19:10;;;;;;;19.50;16.97;;;;;;;4.51;76.93;97897.14;1739379;80;21357;-65
2021/04/29 01:21:38;;;;;;;17.87;15.28;;;;;;;4.51;76.82;97898.95;1791577;79;21346;-64
2021/04/29 01:24:15;;;;;;;18.87;17.05;;;;;;;4.51;76.98;97894.97;1748224;79;21368;-64
2021/04/29 01:26:46;;;;;;;17.62;16.05;;;;;;;4.52;76.90;97892.67;1790105;79;20959;-65
2021/04/29 01:29:24;;;;;;;19.30;17.45;;;;;;;4.50;76.94;97886.59;1786549;79;21083;-65
2021/04/29 01:31:53;;;;;;;18.45;16.70;;;;;;;4.47;76.88;97882.76;1819001;78;21054;-64
2021/04/29 01:34:24;;;;;;;18.57;16.67;;;;;;;4.46;76.98;97885.90;1758965;80;20962;-65
2021/04/29 01:36:52;;;;;;;19.05;17.15;;;;;;;4.46;77.16;97881.03;1807194;78;21357;-64
2021/04/29 01:39:21;;;;;;;20.08;18.17;;;;;;;4.45;77.28;97884.65;1777198;78;20920;-64
2021/04/29 01:41:52;;;;;;;20.35;18.25;;;;;;;4.45;77.30;97883.32;1806276;78;20983;-64
2021/04/29 01:44:23;;;;;;;19.23;17.40;;;;;;;4.44;77.24;97874.94;1812333;78;21452;-63
2021/04/29 01:46:56;;;;;;;19.57;17.30;;;;;;;4.44;77.15;97869.14;1796815;79;20970;-65
2021/04/29 01:49:24;;;;;;;21.10;17.05;;;;;;;4.45;77.30;97876.19;1810785;78;21220;-64
2021/04/29 01:51:52;;;;;;;22.10;18.35;;;;;;;4.45;77.49;97870.02;1776090;79;20998;-65
2021/04/29 01:54:22;;;;;;;18.85;16.85;;;;;;;4.45;77.40;97868.69;1808225;78;22652;-64
2021/04/29 01:56:49;;;;;;;18.07;16.17;;;;;;;4.47;77.38;97872.13;1823292;78;21473;-65
2021/04/29 01:59:19;;;;;;;18.62;16.82;;;;;;;4.47;77.30;97869.46;1797483;79;20938;-64
2021/04/29 02:01:47;;;;;;;19.95;17.73;;;;;;;4.50;77.38;97871.48;1805246;78;21372;-64
2021/04/29 02:04:14;;;;;;;20.25;18.40;;;;;;;4.51;77.37;97871.03;1806668;78;20908;-64
2021/04/29 02:06:45;;;;;;;24.23;19.57;;;;;;;4.54;77.35;97869.53;1793132;79;20904;-64
2021/04/29 02:09:15;;;;;;;21.02;18.85;;;;;;;4.55;77.48;97864.59;1825274;78;20975;-65
2021/04/29 02:11:55;;;;;;;19.95;17.95;;;;;;;4.57;77.48;97858.70;1797492;79;21625;-65
2021/04/29 02:14:34;;;;;;;20.65;15.55;;;;;;;4.60;77.51;97861.68;1803744;78;22377;-64
2021/04/29 02:17:07;;;;;;;23.27;18.10;;;;;;;4.65;77.45;97855.63;1812727;78;20954;-65
2021/04/29 02:19:34;;;;;;;18.90;17.12;;;;;;;4.66;77.38;97851.56;1795394;78;20971;-63
2021/04/29 02:22:03;;;;;;;19.82;17.73;;;;;;;4.67;77.44;97853.30;1799992;78;20955;-65
2021/04/29 02:24:32;;;;;;;18.32;16.50;;;;;;;4.68;77.32;97851.48;1805788;78;21325;-64
2021/04/29 02:27:00;;;;;;;16.25;14.78;;;;;;;4.69;77.33;97848.73;1795120;78;21416;-64
2021/04/29 02:29:31;;;;;;;18.30;16.50;;;;;;;4.74;77.26;97847.64;1799984;78;20987;-64
2021/04/29 02:31:59;;;;;;;18.92;16.87;;;;;;;4.73;77.26;97849.45;1822832;78;20920;-65
2021/04/29 02:34:27;;;;;;;19.15;17.12;;;;;;;4.74;77.16;97842.31;1793692;79;21369;-65
2021/04/29 02:36:56;;;;;;;20.45;15.63;;;;;;;4.73;77.14;97833.94;1825080;78;20920;-65
2021/04/29 02:39:23;;;;;;;17.98;15.48;;;;;;;4.72;77.16;97836.23;1796702;79;21430;-64
2021/04/29 02:41:52;;;;;;;19.25;17.20;;;;;;;4.72;77.13;97846.88;1825845;78;20955;-65
2021/04/29 02:44:20;;;;;;;20.90;18.57;;;;;;;4.72;77.04;97842.41;1795001;79;20919;-64
2021/04/29 02:46:50;;;;;;;17.67;15.98;;;;;;;4.69;77.09;97843.41;1820023;78;21023;-64
2021/04/29 02:49:18;;;;;;;18.07;16.27;;;;;;;4.69;76.98;97843.41;1792806;79;20907;-65
2021/04/29 02:51:46;;;;;;;19.60;17.60;;;;;;;4.67;76.92;97836.00;1802061;78;21443;-64
2021/04/29 02:54:13;;;;;;;18.07;16.37;;;;;;;4.65;76.98;97844.55;1794595;78;21038;-65
2021/04/29 02:56:41;;;;;;;20.95;17.32;;;;;;;4.63;77.11;97851.73;1816524;78;20972;-64
2021/04/29 02:59:10;;;;;;;18.52;16.73;;;;;;;4.59;77.18;97847.53;1796551;79;20931;-64
2021/04/29 03:01:39;;;;;;;17.90;16.20;;;;;;;4.55;77.35;97841.98;1803294;78;20958;-64
2021/04/29 03:04:07;;;;;;;21.05;17.73;;;;;;;4.54;77.53;97852.25;1814490;78;21191;-64
2021/04/29 03:06:39;;;;;;;19.00;17.25;;;;;;;4.53;77.51;97854.51;1792988;79;20895;-65
2021/04/29 03:09:07;;;;;;;18.87;17.07;;;;;;;4.54;77.59;97850.92;1765139;79;20919;-64
2021/04/29 03:11:35;;;;;;;21.17;18.65;;;;;;;4.52;77.42;97854.98;1823644;78;20909;-65
2021/04/29 03:14:05;;;;;;;20.80;18.67;;;;;;;4.52;77.52;97863.42;1820575;78;21114;-65
2021/04/29 03:16:32;;;;;;;19.57;17.57;;;;;;;4.51;77.57;97857.73;1797332;78;21384;-63
2021/04/29 03:19:01;;;;;;;21.80;19.70;;;;;;;4.51;77.73;97858.58;1793851;79;21444;-64
2021/04/29 03:21:29;;;;;;;22.13;19.92;;;;;;;4.52;77.71;97860.31;1805613;78;21019;-64
2021/04/29 03:23:57;;;;;;;21.57;19.40;;;;;;;4.51;77.71;97853.74;1819034;78;20892;-64
2021/04/29 03:26:25;;;;;;;24.85;18.37;;;;;;;4.52;77.70;97849.67;1793589;79;20920;-64
2021/04/29 03:28:53;;;;;;;20.08;17.98;;;;;;;4.53;77.83;97860.67;1799329;78;21415;-64
2021/04/29 03:31:20;;;;;;;20.20;18.10;;;;;;;4.56;77.85;97862.33;1802850;78;21002;-65
2021/04/29 03:33:48;;;;;;;23.35;20.57;;;;;;;4.58;77.92;97862.24;1811141;78;20935;-64
2021/04/29 03:36:17;;;;;;;21.33;18.95;;;;;;;4.59;77.92;97867.48;1796705;79;20934;-65
2021/04/29 03:38:45;;;;;;;23.02;20.55;;;;;;;4.61;78.10;97865.59;1794720;79;20915;-64
2021/04/29 03:41:12;;;;;;;22.58;19.12;;;;;;;4.68;78.04;97873.64;1806953;78;21373;-65
2021/04/29 03:43:42;;;;;;;21.40;19.10;;;;;;;4.72;78.01;97860.17;1792440;79;20938;-66
2021/04/29 03:46:10;;;;;;;24.25;19.12;;;;;;;4.77;78.00;97860.30;1814733;78;21156;-64
2021/04/29 03:48:37;;;;;;;24.60;19.48;;;;;;;4.84;78.01;97859.48;1795483;78;20923;-64
2021/04/29 03:51:07;;;;;;;22.95;19.90;;;;;;;4.95;77.80;97861.55;1800679;78;20943;-66
2021/04/29 03:53:35;;;;;;;20.97;18.77;;;;;;;5.04;77.67;97867.22;1794294;79;21335;-65
2021/04/29 03:56:03;;;;;;;24.02;21.50;;;;;;;5.10;77.39;97862.53;1805783;78;20971;-63
2021/04/29 03:58:31;;;;;;;25.27;19.77;;;;;;;5.14;77.31;97866.72;1796384;79;21514;-64
2021/04/29 04:00:59;;;;;;;21.37;19.07;;;;;;;5.19;77.15;97856.69;1790752;79;20932;-65
2021/04/29 04:03:28;;;;;;;22.70;18.95;;;;;;;5.23;76.96;97860.88;1788372;79;21126;-65
2021/04/29 04:05:57;;;;;;;21.17;18.98;;;;;;;5.28;76.84;97861.95;1777914;79;21205;-65
2021/04/29 04:08:24;;;;;;;21.80;19.70;;;;;;;5.29;76.92;97863.68;1779715;79;21827;-65
2021/04/29 04:10:54;;;;;;;20.37;18.27;;;;;;;5.30;76.96;97872.92;1775816;79;21023;-65
2021/04/29 04:13:24;;;;;;;19.25;17.25;;;;;;;5.32;76.85;97868.84;1778184;79;21438;-65
2021/04/29 04:15:51;;;;;;;19.98;17.98;;;;;;;5.34;76.73;97871.78;1780842;79;21544;-65
2021/04/29 04:18:20;;;;;;;23.77;19.15;;;;;;;5.37;76.67;97868.94;1781115;79;21444;-65
2021/04/29 04:20:48;;;;;;;20.02;18.00;;;;;;;5.39;76.72;97875.06;1785092;79;21063;-65
2021/04/29 04:23:17;;;;;;;21.12;17.77;;;;;;;5.40;76.69;97870.10;1786469;79;20936;-64
2021/04/29 04:25:45;;;;;;;18.40;16.45;;;;;;;5.43;76.77;97875.25;1780231;79;20923;-65
2021/04/29 04:28:15;;;;;;;22.62;18.65;;;;;;;5.43;76.59;97867.27;1746957;80;21030;-64
2021/04/29 04:30:42;;;;;;;27.37;18.42;;;;;;;5.43;76.69;97868.59;1781136;79;22115;-65
2021/04/29 04:33:09;;;;;;;20.50;18.50;;;;;;;5.46;76.81;97876.90;1779003;79;20942;-64
2021/04/29 04:35:39;;;;;;;20.77;17.37;;;;;;;5.50;76.78;97877.57;1776183;79;20963;-66
2021/04/29 04:38:07;;;;;;;21.70;18.37;;;;;;;5.54;76.62;97875.13;1780426;79;22642;-65
2021/04/29 04:40:36;;;;;;;22.37;18.67;;;;;;;5.59;76.41;97886.38;1772790;79;20915;-65
2021/04/29 04:55:50;;;;;;;22.87;18.92;;;;;;;5.80;75.67;97878.94;1763527;80;20956;-65
2021/04/29 04:58:20;;;;;;;32.67;20.68;;;;;;;5.84;75.62;97874.30;1751237;80;20893;-65
2021/04/29 05:00:50;;;;;;;22.48;17.55;;;;;;;5.87;75.68;97874.13;1747353;80;21382;-65
2021/04/29 05:03:18;;;;;;;28.98;19.48;;;;;;;5.89;75.85;97872.22;1707313;80;20953;-64
2021/04/29 05:05:46;;;;;;;24.65;21.68;;;;;;;5.93;75.75;97881.77;1755968;80;20936;-65
2021/04/29 05:08:14;;;;;;;23.70;21.17;;;;;;;5.96;75.53;97876.25;1740080;80;21069;-65
2021/04/29 05:10:41;;;;;;;23.87;20.85;;;;;;;6.03;75.50;97884.28;1788769;77;20975;-65
2021/04/29 05:13:10;;;;;;;23.00;20.55;;;;;;;6.06;75.38;97880.11;1767386;79;21373;-65
2021/04/29 05:15:38;;;;;;;30.08;23.00;;;;;;;6.12;75.26;97882.41;1787883;79;20932;-66
2021/04/29 05:18:05;;;;;;;28.07;25.08;;;;;;;6.18;75.14;97877.66;1799074;79;20920;-64
2021/04/29 05:20:34;;;;;;;32.28;22.15;;;;;;;6.23;75.12;97883.56;1775427;80;20939;-65
2021/04/29 05:23:03;;;;;;;30.75;23.80;;;;;;;6.24;75.01;97875.95;1798160;78;20984;-65
2021/04/29 05:25:30;;;;;;;23.27;20.65;;;;;;;6.27;74.97;97872.63;1772857;79;21379;-65
2021/04/29 05:28:02;;;;;;;25.08;20.35;;;;;;;6.32;75.03;97868.34;1797176;79;20932;-66
2021/04/29 05:30:30;;;;;;;28.57;22.25;;;;;;;6.37;75.00;97870.28;1774223;80;21039;-65
2021/04/29 05:33:00;;;;;;;26.82;23.35;;;;;;;6.42;75.06;97872.67;1785133;78;20976;-64
2021/04/29 05:35:29;;;;;;;26.77;23.95;;;;;;;6.48;74.71;97870.48;1768531;80;21023;-64
2021/04/29 05:37:56;;;;;;;24.63;21.10;;;;;;;6.54;74.40;97868.38;1805525;78;22087;-64
2021/04/29 05:40:25;;;;;;;26.55;23.67;;;;;;;6.62;74.31;97858.96;1775254;80;21548;-65
2021/04/29 05:42:53;;;;;;;26.52;23.07;;;;;;;6.70;74.24;97871.83;1757302;80;21076;-64
2021/04/29 05:45:22;;;;;;;25.37;22.42;;;;;;;6.76;74.12;97871.42;1746982;80;21595;-66
2021/04/29 05:47:52;;;;;;;28.92;22.98;;;;;;;6.80;74.00;97870.29;1763252;80;20996;-65
2021/04/29 05:50:19;;;;;;;24.82;22.17;;;;;;;6.87;73.95;97870.30;1807039;77;22334;-65
2021/04/29 05:52:47;;;;;;;29.45;20.30;;;;;;;6.94;73.80;97869.92;1789994;79;21103;-63
2021/04/29 05:55:15;;;;;;;23.62;20.80;;;;;;;6.99;73.66;97871.81;1773180;80;21403;-69
2021/04/29 05:57:42;;;;;;;30.92;20.52;;;;;;;7.05;73.40;97871.42;1762536;80;21063;-67
2021/04/29 06:00:11;;;;;;;24.72;19.92;;;;;;;7.12;73.51;97880.74;1744703;80;20928;-64
2021/04/29 06:02:41;;;;;;;29.40;20.05;;;;;;;7.19;73.69;97876.73;1841021;77;21177;-63
2021/04/29 06:05:10;;;;;;;22.00;19.60;;;;;;;7.25;73.74;97883.48;1817165;77;20920;-63
2021/04/29 06:07:38;;;;;;;21.50;19.37;;;;;;;7.32;73.99;97886.64;1815086;77;20983;-64
2021/04/29 06:10:10;;;;;;;19.85;17.85;;;;;;;7.38;74.23;97888.92;1815257;77;21436;-67
2021/04/29 06:12:38;;;;;;;20.12;18.02;;;;;;;7.44;74.58;97891.66;1749286;80;20965;-68
2021/04/29 06:15:08;;;;;;;22.70;20.57;;;;;;;7.47;74.41;97888.30;1807601;77;21365;-65
2021/04/29 06:17:38;;;;;;;22.05;19.70;;;;;;;7.51;74.47;97887.16;1801139;79;20927;-65
2021/04/29 06:20:08;;;;;;;20.17;18.07;;;;;;;7.52;74.18;97888.88;1804886;79;20944;-65
2021/04/29 06:22:35;;;;;;;21.33;19.27;;;;;;;7.57;74.10;97896.59;1789847;79;21494;-64
2021/04/29 06:25:06;;;;;;;22.73;20.17;;;;;;;7.59;74.05;97897.34;1779239;80;20963;-67
2021/04/29 06:27:35;;;;;;;20.85;18.62;;;;;;;7.62;74.12;97892.30;1788765;78;21357;-70
2021/04/29 06:30:03;;;;;;;23.30;19.60;;;;;;;7.63;74.29;97892.65;1773111;79;21003;-68
2021/04/29 06:32:32;;;;;;;23.12;20.75;;;;;;;7.66;73.88;97895.97;1782608;79;21087;-67
2021/04/29 06:35:00;;;;;;;21.05;18.00;;;;;;;7.71;73.91;97882.30;1784528;78;20993;-66
2021/04/29 06:37:28;;;;;;;20.85;18.27;;;;;;;7.75;73.90;97895.86;1765967;80;21055;-66
2021/04/29 06:39:56;;;;;;;18.87;17.02;;;;;;;7.79;74.05;97890.70;1774247;79;22104;-73
2021/04/29 06:42:23;;;;;;;22.42;19.15;;;;;;;7.81;73.87;97895.45;1785937;79;21500;-66
2021/04/29 06:44:52;;;;;;;20.17;18.27;;;;;;;7.87;73.85;97899.06;1818957;77;20972;-70
2021/04/29 06:47:23;;;;;;;19.00;17.15;;;;;;;7.92;73.75;97899.61;1799647;78;20944;-66
2021/04/29 06:49:51;;;;;;;19.65;17.67;;;;;;;8.01;73.42;97895.48;1823250;77;20920;-74
2021/04/29 06:52:20;;;;;;;30.10;24.43;;;;;;;8.13;73.28;97892.44;1773643;79;21377;-69
2021/04/29 06:54:49;;;;;;;18.67;16.87;;;;;;;8.26;73.75;97887.98;1773123;79;21497;-68
2021/04/29 06:57:16;;;;;;;20.00;17.70;;;;;;;8.41;73.58;97883.39;1832080;77;21117;-73
2021/04/29 06:59:48;;;;;;;19.70;16.02;;;;;;;8.56;72.76;97883.33;1828372;77;21433;-68
2021/04/29 07:02:18;;;;;;;19.27;17.27;;;;;;;8.71;72.38;97886.27;1770160;80;20908;-66
2021/04/29 07:04:48;;;;;;;19.25;17.42;;;;;;;8.85;72.08;97885.31;1797393;79;21218;-66
2021/04/29 07:07:16;;;;;;;18.65;16.82;;;;;;;8.92;71.21;97888.41;1776992;80;21030;-67
2021/04/29 07:09:45;;;;;;;17.52;15.80;;;;;;;9.00;71.13;97878.00;1783806;79;21114;-67
2021/04/29 07:12:13;;;;;;;17.12;15.38;;;;;;;9.08;70.32;97876.11;1773949;79;20976;-77
2021/04/29 07:14:43;;;;;;;19.92;18.02;;;;;;;9.14;70.14;97874.34;1773225;79;20917;-70
2021/04/29 07:17:11;;;;;;;18.17;16.32;;;;;;;9.16;69.60;97875.95;1778324;79;22250;-72
2021/04/29 07:19:41;;;;;;;30.72;23.50;;;;;;;9.20;69.63;97881.94;1786627;79;21027;-67
2021/04/29 07:22:15;;;;;;;18.82;17.05;;;;;;;9.24;70.19;97886.12;1773489;80;20935;-69
2021/04/29 07:24:47;;;;;;;22.17;15.93;;;;;;;9.27;69.93;97885.90;1750489;80;21000;-70
2021/04/29 07:27:17;;;;;;;20.92;17.37;;;;;;;9.33;69.84;97884.12;1819691;77;21042;-71
2021/04/29 07:29:47;;;;;;;18.45;16.52;;;;;;;9.37;69.67;97892.28;1828368;77;21358;-71
2021/04/29 07:32:14;;;;;;;20.32;18.17;;;;;;;9.39;69.29;97887.66;1808840;77;21068;-67
2021/04/29 07:34:42;;;;;;;19.52;17.25;;;;;;;9.39;69.00;97887.66;1767427;80;21106;-73
2021/04/29 07:37:12;;;;;;;25.62;19.23;;;;;;;9.44;68.95;97891.84;1796109;79;21044;-66
2021/04/29 07:39:40;;;;;;;21.10;18.07;;;;;;;9.45;69.08;97884.19;1772379;80;20928;-66
2021/04/29 07:42:10;;;;;;;22.10;17.35;;;;;;;9.47;68.85;97883.58;1825656;77;22226;-65
2021/04/29 07:44:38;;;;;;;20.97;18.67;;;;;;;9.48;69.23;97878.60;1766361;79;20901;-66
2021/04/29 07:47:07;;;;;;;24.43;18.50;;;;;;;9.49;69.36;97882.52;1782425;79;21062;-67
2021/04/29 07:49:42;;;;;;;22.67;17.10;;;;;;;9.53;69.14;97875.94;1784178;78;21595;-66
2021/04/29 07:52:13;;;;;;;165.70;122.92;;;;;;;9.63;69.38;97875.27;1773950;79;21276;-65
2021/04/29 07:54:42;;;;;;;26.65;22.65;;;;;;;9.71;69.27;97879.10;1799318;78;21191;-67
2021/04/29 07:57:10;;;;;;;20.32;18.27;;;;;;;9.83;69.26;97873.79;1771684;80;20975;-69
2021/04/29 07:59:39;;;;;;;18.62;16.73;;;;;;;9.96;69.03;97871.88;1768772;80;21111;-67
2021/04/29 08:02:11;;;;;;;17.90;16.17;;;;;;;10.11;68.16;97878.78;1796451;78;21035;-67
2021/04/29 08:04:40;;;;;;;17.57;15.72;;;;;;;10.26;67.74;97869.19;1755037;80;20926;-67
2021/04/29 08:07:12;;;;;;;18.25;14.80;;;;;;;10.42;67.81;97864.87;1763738;79;21480;-67
2021/04/29 08:09:40;;;;;;;17.62;15.75;;;;;;;10.58;67.44;97872.58;1835054;77;20939;-69
2021/04/29 08:12:08;;;;;;;20.85;15.75;;;;;;;10.73;66.89;97866.02;1821294;77;20923;-67
2021/04/29 08:14:38;;;;;;;17.90;16.05;;;;;;;10.89;66.97;97862.97;1784872;79;20921;-69
2021/04/29 08:17:05;;;;;;;17.10;14.98;;;;;;;11.06;66.64;97862.98;1775414;80;20941;-67
2021/04/29 08:19:35;;;;;;;17.25;15.68;;;;;;;11.24;66.25;97856.63;1762811;80;21233;-67
2021/04/29 08:22:04;;;;;;;16.93;15.30;;;;;;;11.44;66.00;97865.75;1765544;80;21032;-66
2021/04/29 08:24:32;;;;;;;20.08;15.48;;;;;;;11.63;64.99;97861.56;1754102;80;21012;-67
2021/04/29 08:27:00;;;;;;;15.75;14.03;;;;;;;11.80;65.08;97861.02;1742607;80;21591;-67
2021/04/29 08:29:33;;;;;;;16.77;15.10;;;;;;;11.95;63.96;97862.09;1776002;80;21063;-67
2021/04/29 08:32:00;;;;;;;22.13;17.57;;;;;;;12.09;63.85;97861.78;1789757;79;21387;-67
2021/04/29 08:34:30;;;;;;;16.93;15.30;;;;;;;12.19;63.06;97857.85;1773179;79;20948;-67
2021/04/29 08:36:58;;;;;;;18.15;16.25;;;;;;;12.31;62.98;97846.02;1773196;79;20975;-67
2021/04/29 08:39:27;;;;;;;19.67;17.55;;;;;;;12.37;62.55;97846.84;1773089;79;20920;-66
2021/04/29 08:41:55;;;;;;;17.73;15.98;;;;;;;12.46;62.17;97850.59;1780384;79;20929;-66
2021/04/29 08:44:23;;;;;;;18.92;17.12;;;;;;;12.61;62.48;97845.24;1772460;80;21141;-66
2021/04/29 08:46:50;;;;;;;17.57;16.00;;;;;;;12.79;61.72;97844.63;1783869;79;21127;-68
2021/04/29 08:49:20;;;;;;;17.65;16.00;;;;;;;13.03;61.08;97838.91;1772936;79;20904;-67
2021/04/29 08:51:51;;;;;;;17.02;15.38;;;;;;;13.31;60.64;97837.30;1785391;79;21387;-66
2021/04/29 08:54:18;;;;;;;17.82;16.10;;;;;;;13.57;59.16;97838.17;1798027;78;21064;-66
2021/04/29 08:56:46;;;;;;;18.35;16.40;;;;;;;13.78;58.23;97834.50;1786356;78;22402;-67
2021/04/29 08:59:14;;;;;;;19.80;17.65;;;;;;;13.96;57.88;97830.13;1771801;80;20959;-62
2021/04/29 09:01:46;;;;;;;19.55;17.48;;;;;;;14.14;57.72;97825.35;1757312;80;21028;-62
2021/04/29 09:04:16;;;;;;;20.93;15.53;;;;;;;14.23;57.84;97819.09;1811249;78;20984;-62
2021/04/29 09:06:46;;;;;;;16.37;14.87;;;;;;;14.30;56.76;97818.89;1785864;79;20945;-62
2021/04/29 09:09:14;;;;;;;16.40;14.90;;;;;;;14.34;56.58;97831.09;1780567;79;21355;-62
2021/04/29 09:11:51;;;;;;;15.48;14.13;;;;;;;14.36;56.50;97834.49;1823735;77;20931;-63
2021/04/29 09:14:31;;;;;;;14.70;13.28;;;;;;;14.34;56.03;97839.70;1793619;78;21019;-63
2021/04/29 09:16:59;;;;;;;15.48;13.98;;;;;;;14.28;55.83;97829.84;1794447;79;20949;-63
2021/04/29 09:19:29;;;;;;;19.57;14.43;;;;;;;14.20;56.80;97830.19;1764166;80;20932;-62
2021/04/29 09:21:59;;;;;;;16.35;14.70;;;;;;;14.15;57.18;97832.47;1764092;80;21361;-63
2021/04/29 09:24:38;;;;;;;16.62;13.98;;;;;;;14.11;57.82;97827.86;1833179;77;20955;-61
2021/04/29 09:27:20;;;;;;;19.02;13.50;;;;;;;14.08;57.63;97826.80;1826324;77;20933;-62
2021/04/29 09:29:56;;;;;;;20.10;14.83;;;;;;;14.07;57.82;97833.19;1773045;79;20972;-64
2021/04/29 09:32:30;;;;;;;16.55;15.13;;;;;;;14.07;57.85;97823.73;1827020;77;21562;-63
2021/04/29 09:34:59;;;;;;;16.42;14.70;;;;;;;14.09;58.00;97831.19;1819581;77;21643;-61
2021/04/29 09:37:31;;;;;;;19.30;16.40;;;;;;;14.14;57.80;97828.89;1811129;77;20923;-62
2021/04/29 09:40:22;;;;;;;25.17;14.18;;;;;;;14.22;58.58;97821.43;1819639;77;20971;-64
2021/04/29 09:42:50;;;;;;;22.07;15.83;;;;;;;14.33;58.59;97817.73;1781289;79;21011;-63
2021/04/29 09:45:28;;;;;;;14.40;13.20;;;;;;;14.53;60.05;97825.31;1821661;77;21350;-62
2021/04/29 09:47:59;;;;;;;14.13;12.88;;;;;;;14.79;58.14;97826.41;1754161;79;22274;-64
2021/04/29 09:50:33;;;;;;;17.90;14.10;;;;;;;15.04;56.96;97825.41;1782737;79;20939;-62
2021/04/29 09:53:08;;;;;;;19.92;14.60;;;;;;;15.24;55.99;97817.19;1822485;77;21461;-62
2021/04/29 09:55:41;;;;;;;14.40;12.98;;;;;;;15.40;56.54;97810.61;1763396;80;20941;-64
2021/04/29 09:58:17;;;;;;;12.63;11.00;;;;;;;15.58;56.38;97807.08;1783428;79;20936;-62
2021/04/29 10:00:49;;;;;;;13.80;12.60;;;;;;;15.66;55.36;97807.19;1807789;77;22276;-65
2021/04/29 10:03:18;;;;;;;13.78;12.37;;;;;;;15.71;55.70;97803.52;1759526;80;21022;-63
2021/04/29 10:05:52;;;;;;;14.25;12.68;;;;;;;15.77;54.81;97802.09;1790420;79;21039;-63
2021/04/29 10:08:25;;;;;;;13.55;12.43;;;;;;;15.80;54.68;97802.62;1811279;77;21117;-64
2021/04/29 10:10:57;;;;;;;15.35;12.55;;;;;;;15.80;54.66;97803.14;1831926;77;20987;-62
2021/04/29 10:13:29;;;;;;;;;;;;;;;15.78;54.84;97795.66;1743731;80;21372;-62
2021/04/29 10:16:00;;;;;;;15.10;12.88;;;;;;;15.76;54.97;97798.48;1811955;78;20103;-62
2021/04/29 10:18:29;;;;;;;14.25;12.85;;;;;;;15.71;55.20;97791.33;1761542;79;20940;-62
2021/04/29 10:20:58;;;;;;;15.28;12.75;;;;;;;15.67;55.18;97796.69;1787270;79;21035;-64
2021/04/29 10:23:28;;;;;;;28.62;15.85;;;;;;;15.63;55.12;97789.90;1765541;79;20944;-65
2021/04/29 10:26:01;;;;;;;13.13;11.93;;;;;;;15.62;55.01;97788.19;1797347;78;21135;-63
2021/04/29 10:28:36;;;;;;;14.23;11.57;;;;;;;15.62;55.34;97781.42;1785713;79;21018;-62
2021/04/29 10:31:23;;;;;;;14.23;12.98;;;;;;;15.65;55.42;97781.11;1773650;80;20932;-63
2021/04/29 10:33:57;;;;;;;13.62;11.90;;;;;;;15.69;55.36;97781.17;1762309;80;21611;-61
2021/04/29 10:36:42;;;;;;;13.08;11.97;;;;;;;15.75;56.47;97777.84;1791656;79;20932;-63
2021/04/29 10:39:20;;;;;;;15.18;13.70;;;;;;;15.84;56.59;97776.92;1794979;79;21351;-63
2021/04/29 10:42:06;;;;;;;13.85;12.55;;;;;;;15.95;55.46;97771.78;1780739;79;20987;-64
2021/04/29 10:44:53;;;;;;;14.70;13.30;;;;;;;16.04;55.95;97769.49;1814529;77;21477;-62
2021/04/29 10:47:30;;;;;;;14.55;13.15;;;;;;;16.11;55.00;97767.00;1755738;80;20968;-62
2021/04/29 10:50:10;;;;;;;16.93;14.40;;;;;;;16.13;54.30;97760.07;1767577;80;21100;-64
2021/04/29 10:52:56;;;;;;;12.93;11.83;;;;;;;16.12;55.10;97762.45;1798841;79;21191;-61
2021/04/29 10:55:30;;;;;;;15.75;12.65;;;;;;;16.09;54.30;97762.25;1809143;77;20959;-63
2021/04/29 10:57:59;;;;;;;12.78;11.48;;;;;;;16.10;54.44;97762.61;1774946;79;20965;-62
2021/04/29 11:00:32;;;;;;;16.42;11.90;;;;;;;16.07;54.70;97753.44;1778127;79;21591;-62
2021/04/29 11:03:06;;;;;;;15.70;12.50;;;;;;;16.04;55.04;97757.81;1776016;79;20943;-62
2021/04/29 11:05:38;;;;;;;13.62;12.30;;;;;;;15.99;55.24;97756.93;1760528;80;21472;-64
2021/04/29 11:08:09;;;;;;;13.55;11.70;;;;;;;15.93;55.55;97756.71;1812455;77;21069;-64
2021/04/29 11:10:40;;;;;;;17.52;12.65;;;;;;;15.86;55.82;97753.27;1790642;79;20932;-63
2021/04/29 11:13:08;;;;;;;14.38;12.53;;;;;;;15.81;56.04;97747.45;1768627;79;21468;-63
2021/04/29 11:15:38;;;;;;;15.70;13.68;;;;;;;15.75;56.30;97752.13;1792107;79;21484;-64
2021/04/29 11:18:10;;;;;;;20.77;15.63;;;;;;;15.71;56.65;97752.08;1794176;79;21323;-61
2021/04/29 11:20:53;;;;;;;19.40;17.70;;;;;;;15.66;56.79;97745.77;1824712;77;21054;-62
2021/04/29 11:23:47;;;;;;;18.98;17.23;;;;;;;15.62;56.80;97750.30;1831192;77;20989;-63
2021/04/29 11:26:17;;;;;;;16.73;14.60;;;;;;;15.60;56.93;97743.67;1758928;80;20896;-62
2021/04/29 11:28:45;;;;;;;15.90;14.38;;;;;;;15.58;57.02;97752.95;1813375;77;21337;-62
2021/04/29 11:31:13;;;;;;;16.32;14.20;;;;;;;15.55;57.33;97741.94;1761246;79;21478;-63
2021/04/29 11:33:45;;;;;;;20.92;12.75;;;;;;;15.54;57.24;97743.81;1796619;79;21040;-64
2021/04/29 11:36:27;;;;;;;14.50;12.73;;;;;;;15.54;57.70;97735.69;1799677;79;20988;-61
2021/04/29 11:39:03;;;;;;;14.65;13.18;;;;;;;15.54;57.49;97739.75;1819187;77;21583;-62
2021/04/29 11:41:31;;;;;;;19.95;13.45;;;;;;;15.54;57.37;97743.81;1784319;78;21597;-64
2021/04/29 11:44:05;;;;;;;20.95;13.00;;;;;;;15.56;57.68;97738.73;1764995;79;21271;-64
2021/04/29 11:46:36;;;;;;;20.80;13.40;;;;;;;15.58;57.55;97729.94;1773309;80;21567;-63
2021/04/29 11:49:07;;;;;;;16.77;12.28;;;;;;;15.61;57.57;97725.57;1828646;77;21011;-64